Pine Point, Maine
Current Conditions -  °F | °C
As of 12:51 PM on Saturday 22 Nov 2014 (Local Time) from KPWM Reporting Station
Overcast Overcast  
Wind Chill: 25°   Ceiling: 15000
Heat Index: 33°   Visibility: 10mi
Dew Point: 13°   Wind: 9mph
Humidity: 43%   Direction: 230°SW
Pressure: 30.16"   Gusts: 17mph
Location:  43.5917°N, 70.3693°W
Report Text: KPWM 221751Z 23008G15KT 180V250 10SM OVC150 01/M11 A3016 RMK AO2 SLP214 T00061106 10006 21039 56043
Loading
Personal Weather Stations






























Interactive Weather Map New forecast layout! Learn more

10-Day Weather Forecast

Advertisements
Track Severe Weather on mobile